Time;durP1;ratioP1;P1;durP2;ratioP2;P2;SDS_P1;SDS_P2;PMS_P1;PMS_P2;Temp;Humidity;BMP_temperature;BMP_pressure;BME280_temperature;BME280_humidity;BME280_pressure;Samples;Min_cycle;Max_cycle;Signal;HPM_P1;HPM_P2
2020/12/19 00:00:46;;;;;;;16.88;13.10;;;5.80;94.90;;;;;;5033668;28;20034;-66
2020/12/19 00:03:12;;;;;;;18.92;13.15;;;5.90;95.00;;;;;;5032509;28;20026;-66
2020/12/19 00:05:38;;;;;;;14.95;12.65;;;5.90;95.00;;;;;;5033595;28;20064;-65
2020/12/19 00:08:04;;;;;;;14.73;12.18;;;5.90;95.00;;;;;;5015537;28;20026;-66
2020/12/19 00:10:29;;;;;;;16.00;11.60;;;5.90;95.00;;;;;;5032765;28;20029;-67
2020/12/19 00:12:59;;;;;;;14.85;12.15;;;5.90;95.00;;;;;;5015214;28;20029;-67
2020/12/19 00:15:26;;;;;;;17.23;12.70;;;5.80;94.90;;;;;;5015648;28;20033;-67
2020/12/19 00:17:52;;;;;;;13.07;11.68;;;5.80;94.90;;;;;;5032201;28;20448;-66
2020/12/19 00:20:17;;;;;;;18.52;11.50;;;5.80;94.90;;;;;;5033404;28;20108;-67
2020/12/19 00:22:46;;;;;;;17.25;11.80;;;5.70;94.80;;;;;;5033103;28;20032;-66
2020/12/19 00:25:12;;;;;;;15.13;12.07;;;5.70;94.80;;;;;;5032257;28;20025;-66
2020/12/19 00:27:38;;;;;;;16.13;12.57;;;5.60;94.80;;;;;;5033178;28;20025;-66
2020/12/19 00:30:08;;;;;;;16.20;12.80;;;5.60;94.90;;;;;;5032790;28;20135;-66
2020/12/19 00:32:37;;;;;;;15.18;12.30;;;5.60;95.00;;;;;;5032289;28;20378;-66
2020/12/19 00:35:02;;;;;;;17.98;12.75;;;5.60;95.00;;;;;;5032793;28;20064;-65
2020/12/19 00:37:28;;;;;;;14.85;12.68;;;5.60;95.00;;;;;;5032959;28;20472;-65
2020/12/19 00:39:53;;;;;;;16.92;13.57;;;5.60;95.00;;;;;;5032179;28;20026;-65
2020/12/19 00:42:19;;;;;;;17.05;13.40;;;5.60;95.00;;;;;;5033052;28;20014;-66
2020/12/19 00:44:45;;;;;;;16.05;13.18;;;5.60;95.10;;;;;;5014951;28;20488;-65
2020/12/19 00:47:10;;;;;;;20.95;13.68;;;5.60;95.10;;;;;;5032736;28;20060;-65
2020/12/19 00:49:36;;;;;;;19.40;13.10;;;5.60;95.10;;;;;;5033111;28;20033;-66
2020/12/19 00:52:02;;;;;;;18.17;13.93;;;5.60;95.10;;;;;;5031965;28;20025;-65
2020/12/19 00:54:27;;;;;;;16.80;13.77;;;5.50;95.10;;;;;;5033053;28;20033;-66
2020/12/19 00:56:53;;;;;;;23.02;14.23;;;5.60;95.20;;;;;;5031999;28;20022;-66
2020/12/19 00:59:18;;;;;;;22.30;14.18;;;5.60;95.30;;;;;;5014576;28;20032;-66
2020/12/19 01:01:44;;;;;;;18.55;14.48;;;5.60;95.30;;;;;;5032808;28;20486;-66
2020/12/19 01:04:09;;;;;;;17.38;13.43;;;5.60;95.30;;;;;;5032518;28;20025;-66
2020/12/19 01:06:35;;;;;;;18.63;13.57;;;5.60;95.30;;;;;;5014372;28;20492;-65
2020/12/19 01:09:01;;;;;;;20.67;13.55;;;5.60;95.30;;;;;;5032513;28;20109;-66
2020/12/19 01:11:28;;;;;;;15.50;12.40;;;5.60;95.30;;;;;;5032694;28;20029;-66
2020/12/19 01:13:54;;;;;;;24.25;14.32;;;5.60;95.30;;;;;;5031627;28;20373;-66
2020/12/19 01:16:25;;;;;;;19.17;14.00;;;5.60;95.30;;;;;;5032717;28;20079;-66
2020/12/19 01:18:52;;;;;;;20.00;14.05;;;5.60;95.40;;;;;;5015154;28;20017;-66
2020/12/19 01:21:24;;;;;;;17.42;13.60;;;5.60;95.40;;;;;;5032231;28;20374;-66
2020/12/19 01:23:50;;;;;;;20.85;14.30;;;5.60;95.40;;;;;;5032709;28;20080;-72
2020/12/19 01:26:17;;;;;;;16.80;13.70;;;5.60;95.40;;;;;;5032351;28;20048;-66
2020/12/19 01:28:43;;;;;;;17.90;14.80;;;5.50;95.30;;;;;;5032094;28;20355;-67
2020/12/19 01:31:11;;;;;;;16.80;13.63;;;5.50;95.30;;;;;;5032343;28;20044;-67
2020/12/19 01:33:37;;;;;;;18.40;14.25;;;5.50;95.30;;;;;;5032656;28;20018;-67
2020/12/19 01:36:07;;;;;;;19.88;13.82;;;5.50;95.30;;;;;;5014093;28;20036;-66
2020/12/19 01:38:32;;;;;;;19.27;13.57;;;5.40;95.30;;;;;;5032413;28;20041;-67
2020/12/19 01:40:58;;;;;;;19.40;14.55;;;5.40;95.30;;;;;;5032084;28;20036;-66
2020/12/19 01:43:24;;;;;;;19.70;14.43;;;5.40;95.30;;;;;;5031933;28;20025;-66
2020/12/19 01:45:50;;;;;;;20.17;14.85;;;5.40;95.30;;;;;;5032467;28;20043;-67
2020/12/19 01:48:25;;;;;;;21.13;15.27;;;5.40;95.30;;;;;;5013799;28;20028;-67
2020/12/19 01:50:52;;;;;;;21.08;14.65;;;5.40;95.30;;;;;;5032422;28;20028;-66
2020/12/19 01:53:19;;;;;;;18.10;14.27;;;5.40;95.40;;;;;;5014450;28;20112;-67
2020/12/19 01:55:46;;;;;;;22.10;14.88;;;5.30;95.30;;;;;;5031468;28;20049;-66
2020/12/19 01:58:12;;;;;;;22.70;15.23;;;5.30;95.30;;;;;;5031987;28;20418;-66
2020/12/19 02:00:41;;;;;;;18.63;14.20;;;5.30;95.30;;;;;;5014488;28;20398;-67
2020/12/19 02:03:07;;;;;;;19.35;15.10;;;5.30;95.30;;;;;;5031166;28;20025;-67
2020/12/19 02:05:35;;;;;;;16.67;14.05;;;5.30;95.30;;;;;;5032425;28;20025;-66
2020/12/19 02:08:02;;;;;;;18.23;14.23;;;5.30;95.30;;;;;;5033756;28;20443;-65
2020/12/19 02:10:32;;;;;;;18.80;14.90;;;5.30;95.30;;;;;;5035147;28;20018;-66
2020/12/19 02:13:01;;;;;;;17.92;14.90;;;5.30;95.20;;;;;;5035432;28;20490;-67
2020/12/19 02:15:26;;;;;;;16.50;14.13;;;5.20;95.20;;;;;;5035649;28;20511;-66
2020/12/19 02:17:52;;;;;;;18.58;14.30;;;5.20;95.20;;;;;;5034557;28;20021;-66
2020/12/19 02:20:18;;;;;;;16.38;13.48;;;5.10;95.10;;;;;;5035602;28;20030;-67
2020/12/19 02:22:44;;;;;;;24.85;14.25;;;5.10;95.10;;;;;;5035492;28;20022;-68
2020/12/19 02:25:10;;;;;;;17.40;13.30;;;5.00;95.10;;;;;;5034336;28;20033;-66
2020/12/19 02:27:35;;;;;;;23.02;14.68;;;5.00;95.10;;;;;;5035394;28;20030;-66
2020/12/19 02:30:01;;;;;;;17.23;13.02;;;5.00;95.10;;;;;;5035102;28;20445;-66
2020/12/19 02:32:27;;;;;;;17.38;13.82;;;5.00;95.10;;;;;;5016939;28;20026;-67
2020/12/19 02:34:53;;;;;;;19.13;14.18;;;5.00;95.10;;;;;;5035095;28;20026;-67
2020/12/19 02:37:18;;;;;;;18.90;14.35;;;4.90;95.10;;;;;;5034530;28;20485;-68
2020/12/19 02:39:44;;;;;;;20.70;14.48;;;4.90;95.10;;;;;;5035460;28;20029;-67
2020/12/19 02:42:09;;;;;;;21.50;14.20;;;4.90;95.10;;;;;;5017087;28;20028;-67
2020/12/19 02:44:35;;;;;;;18.75;13.38;;;4.90;95.20;;;;;;5034590;28;20022;-67
2020/12/19 02:47:00;;;;;;;19.63;14.32;;;4.90;95.10;;;;;;5035160;28;20370;-66
2020/12/19 02:49:26;;;;;;;21.88;15.77;;;4.90;95.20;;;;;;5017458;28;20021;-67
2020/12/19 02:52:29;;;;;;;22.30;15.30;;;4.80;95.20;;;;;;5034229;28;20057;-67
2020/12/19 02:54:54;;;;;;;21.80;16.08;;;4.90;95.30;;;;;;5034697;28;20461;-66
2020/12/19 02:57:20;;;;;;;22.70;15.85;;;4.90;95.20;;;;;;5035118;28;20057;-67
2020/12/19 02:59:45;;;;;;;21.50;17.05;;;4.90;95.30;;;;;;5016342;28;20036;-67
2020/12/19 03:02:11;;;;;;;20.95;16.48;;;4.80;95.20;;;;;;5034559;28;20527;-67
2020/12/19 03:04:36;;;;;;;20.08;16.67;;;4.80;95.20;;;;;;5035012;28;20056;-67
2020/12/19 03:07:02;;;;;;;20.95;16.05;;;4.80;95.30;;;;;;5033827;28;20017;-67
2020/12/19 03:09:27;;;;;;;19.05;14.88;;;4.80;95.30;;;;;;5034750;28;20030;-67
2020/12/19 03:11:53;;;;;;;18.33;14.77;;;4.80;95.30;;;;;;5034441;28;20056;-68
2020/12/19 03:14:19;;;;;;;18.05;14.88;;;4.80;95.30;;;;;;5034467;28;20030;-67
2020/12/19 03:16:45;;;;;;;23.00;15.18;;;4.80;95.30;;;;;;5034544;28;20079;-66
2020/12/19 03:19:10;;;;;;;19.27;14.15;;;4.70;95.30;;;;;;5033685;28;20101;-66
2020/12/19 03:21:36;;;;;;;19.35;14.93;;;4.70;95.30;;;;;;5033867;28;20017;-66
2020/12/19 03:24:01;;;;;;;18.33;14.02;;;4.70;95.20;;;;;;5034048;28;20018;-71
2020/12/19 03:26:27;;;;;;;17.35;13.80;;;4.70;95.30;;;;;;5034441;28;20355;-67
2020/12/19 03:28:53;;;;;;;18.55;14.30;;;4.70;95.20;;;;;;5033600;28;20013;-66
2020/12/19 03:31:18;;;;;;;17.15;14.18;;;4.70;95.20;;;;;;5034286;28;20018;-66
2020/12/19 03:33:44;;;;;;;18.42;14.15;;;4.70;95.20;;;;;;5033529;28;20026;-65
2020/12/19 03:36:09;;;;;;;17.35;13.27;;;4.70;95.20;;;;;;5016319;28;20033;-66
2020/12/19 03:38:35;;;;;;;17.70;14.25;;;4.70;95.40;;;;;;5033968;28;20049;-66
2020/12/19 03:41:00;;;;;;;18.05;13.65;;;4.70;95.10;;;;;;5033105;28;20052;-67
2020/12/19 03:43:26;;;;;;;17.10;13.52;;;4.70;95.10;;;;;;5034016;28;20024;-67
2020/12/19 03:45:51;;;;;;;18.60;13.27;;;4.70;95.10;;;;;;5016181;28;20462;-66
2020/12/19 03:48:17;;;;;;;18.75;13.70;;;4.70;95.00;;;;;;5015585;28;20036;-68
2020/12/19 03:50:42;;;;;;;18.73;13.38;;;4.70;95.00;;;;;;5034062;28;20024;-67
2020/12/19 03:53:08;;;;;;;18.23;14.43;;;4.70;94.90;;;;;;5033561;28;20079;-67
2020/12/19 03:55:33;;;;;;;19.25;14.02;;;4.70;94.90;;;;;;5015313;28;20040;-67
2020/12/19 03:57:59;;;;;;;21.20;14.18;;;4.70;94.90;;;;;;5015713;28;20021;-67
2020/12/19 04:00:25;;;;;;;16.98;13.73;;;4.70;94.90;;;;;;5033948;28;20098;-67
2020/12/19 04:02:50;;;;;;;18.83;13.40;;;4.70;94.90;;;;;;5033041;28;20026;-67
2020/12/19 04:05:16;;;;;;;23.08;15.13;;;4.70;95.00;;;;;;5033313;28;20025;-67
2020/12/19 04:07:41;;;;;;;17.25;13.82;;;4.70;95.00;;;;;;5033908;28;20017;-67
2020/12/19 04:10:08;;;;;;;19.23;14.02;;;4.70;95.00;;;;;;5032554;28;20425;-67
2020/12/19 04:12:34;;;;;;;18.80;14.20;;;4.70;95.00;;;;;;5033639;28;20091;-67
2020/12/19 04:15:01;;;;;;;19.38;14.30;;;4.80;95.00;;;;;;5033180;28;20048;-67
2020/12/19 04:17:27;;;;;;;17.33;14.55;;;4.80;95.00;;;;;;5015151;28;20037;-67
2020/12/19 04:19:53;;;;;;;18.00;13.40;;;4.80;95.00;;;;;;5033187;28;20474;-67
2020/12/19 04:22:18;;;;;;;22.15;14.63;;;4.80;94.90;;;;;;5015709;28;20054;-67
2020/12/19 04:24:44;;;;;;;20.33;14.02;;;4.80;94.90;;;;;;5033203;28;20025;-66
2020/12/19 04:27:09;;;;;;;20.17;14.70;;;4.80;94.90;;;;;;5033217;28;20088;-67
2020/12/19 04:29:35;;;;;;;19.20;14.45;;;4.80;94.90;;;;;;5033432;28;20108;-68
2020/12/19 04:32:01;;;;;;;17.27;13.82;;;4.80;94.90;;;;;;5032291;28;20029;-67
2020/12/19 04:34:26;;;;;;;19.00;14.23;;;4.80;95.00;;;;;;5033329;28;20029;-68
2020/12/19 04:36:53;;;;;;;19.48;13.93;;;4.80;94.90;;;;;;5032169;28;20556;-66
2020/12/19 04:39:19;;;;;;;18.90;14.45;;;4.80;94.90;;;;;;5033272;28;20060;-65
2020/12/19 04:41:45;;;;;;;17.35;13.52;;;4.80;94.90;;;;;;5032962;28;20061;-65
2020/12/19 04:44:11;;;;;;;15.95;12.95;;;4.80;94.90;;;;;;5014428;28;20033;-66
2020/12/19 04:46:41;;;;;;;19.55;13.77;;;4.80;94.80;;;;;;5033328;28;20021;-67
2020/12/19 04:49:08;;;;;;;16.40;13.68;;;4.80;94.80;;;;;;5032906;28;20025;-67
2020/12/19 04:51:35;;;;;;;17.08;12.95;;;4.80;94.80;;;;;;5014772;28;20021;-70
2020/12/19 04:54:00;;;;;;;16.95;13.77;;;4.80;94.80;;;;;;5014937;28;20028;-66
2020/12/19 04:56:28;;;;;;;16.60;12.55;;;4.70;94.80;;;;;;5033108;28;20029;-68
2020/12/19 04:58:54;;;;;;;16.65;12.57;;;4.70;94.80;;;;;;5031803;28;20053;-67
2020/12/19 05:01:20;;;;;;;18.08;13.43;;;4.70;94.80;;;;;;5015059;28;20509;-67
2020/12/19 05:03:49;;;;;;;19.50;14.23;;;4.70;94.80;;;;;;5032849;28;20056;-68
2020/12/19 05:06:20;;;;;;;18.08;13.52;;;4.70;94.80;;;;;;5031893;28;20021;-68
2020/12/19 05:08:46;;;;;;;19.70;13.15;;;4.70;94.80;;;;;;5032771;28;20108;-66
2020/12/19 05:11:13;;;;;;;19.27;14.00;;;4.70;94.80;;;;;;5014655;28;20112;-67
2020/12/19 05:13:40;;;;;;;18.88;14.05;;;4.60;94.80;;;;;;5031986;28;20032;-67
2020/12/19 05:16:07;;;;;;;19.88;13.52;;;4.60;94.80;;;;;;5014690;28;20500;-67
2020/12/19 05:18:35;;;;;;;19.25;12.95;;;4.60;94.80;;;;;;5032685;28;20022;-67
2020/12/19 05:21:02;;;;;;;16.90;12.77;;;4.60;94.80;;;;;;5031708;28;20500;-67
2020/12/19 05:23:28;;;;;;;19.25;13.25;;;4.60;94.80;;;;;;5032603;28;20119;-67
2020/12/19 05:25:56;;;;;;;18.25;13.63;;;4.60;94.80;;;;;;5032266;28;20049;-68
2020/12/19 05:28:21;;;;;;;17.30;13.00;;;4.60;94.90;;;;;;5014268;28;20049;-67
2020/12/19 05:30:48;;;;;;;17.40;13.30;;;4.60;94.90;;;;;;5014965;28;20080;-67
2020/12/19 05:33:15;;;;;;;20.08;13.55;;;4.60;94.90;;;;;;5031505;28;20385;-67
2020/12/19 05:35:40;;;;;;;18.27;13.38;;;4.60;94.90;;;;;;5032645;28;20065;-66
2020/12/19 05:38:06;;;;;;;18.83;13.63;;;4.60;95.00;;;;;;5031906;28;20119;-67
2020/12/19 05:40:33;;;;;;;20.70;13.90;;;4.70;95.00;;;;;;5031801;28;20075;-67
2020/12/19 05:42:59;;;;;;;17.98;12.80;;;4.70;95.10;;;;;;5034032;28;20029;-67
2020/12/19 05:45:29;;;;;;;18.52;12.60;;;4.70;95.10;;;;;;5036467;28;20030;-67
2020/12/19 05:47:55;;;;;;;18.90;14.02;;;4.80;95.10;;;;;;5035549;28;20017;-66
2020/12/19 05:50:23;;;;;;;19.80;12.98;;;4.80;95.10;;;;;;5036160;28;20028;-67
2020/12/19 05:52:49;;;;;;;17.98;13.13;;;4.80;95.10;;;;;;5036171;28;20022;-66
2020/12/19 05:55:17;;;;;;;20.48;13.65;;;4.80;95.10;;;;;;5035092;28;20033;-66
2020/12/19 05:57:43;;;;;;;17.77;13.77;;;4.80;95.20;;;;;;5035994;28;20013;-66
2020/12/19 06:00:14;;;;;;;20.00;14.48;;;4.80;95.10;;;;;;5035714;28;20035;-66
2020/12/19 06:02:40;;;;;;;19.10;14.25;;;4.80;95.10;;;;;;5035226;28;20026;-67
2020/12/19 06:05:10;;;;;;;18.02;13.05;;;4.80;95.10;;;;;;5035625;28;20355;-67
2020/12/19 06:07:40;;;;;;;17.80;13.52;;;4.80;95.40;;;;;;5035894;28;20475;-68
2020/12/19 06:10:09;;;;;;;16.38;13.77;;;4.90;95.10;;;;;;5017098;28;20025;-66
2020/12/19 06:12:45;;;;;;;20.65;14.40;;;4.90;95.10;;;;;;5035686;28;20029;-66
2020/12/19 06:15:38;;;;;;;16.90;12.98;;;4.90;95.10;;;;;;5035316;28;20191;-66
2020/12/19 06:18:25;;;;;;;17.38;13.48;;;4.90;95.10;;;;;;5017337;28;20034;-67
2020/12/19 06:20:52;;;;;;;17.25;13.25;;;4.80;95.10;;;;;;5035742;28;20017;-65
2020/12/19 06:23:17;;;;;;;16.98;13.02;;;4.80;95.10;;;;;;5034796;28;20013;-65
2020/12/19 06:25:45;;;;;;;21.30;14.50;;;4.80;95.00;;;;;;5035507;28;20044;-66
2020/12/19 06:28:31;;;;;;;20.65;14.35;;;4.80;95.00;;;;;;5035286;28;20014;-66
2020/12/19 06:31:04;;;;;;;19.90;12.95;;;4.80;95.00;;;;;;5034221;28;20026;-67
2020/12/19 06:33:33;;;;;;;22.42;13.65;;;4.80;95.00;;;;;;5035420;28;20363;-66
2020/12/19 06:36:03;;;;;;;17.02;13.20;;;4.70;95.30;;;;;;5034968;28;20112;-72
2020/12/19 06:38:40;;;;;;;17.35;13.32;;;4.70;95.00;;;;;;5034592;28;20033;-66
2020/12/19 06:41:05;;;;;;;17.15;12.73;;;4.70;95.00;;;;;;5017256;28;20032;-65
2020/12/19 06:43:31;;;;;;;16.77;12.98;;;4.70;95.00;;;;;;5034432;28;20029;-67
2020/12/19 06:45:56;;;;;;;16.58;12.27;;;4.60;94.90;;;;;;5034903;28;20112;-66
2020/12/19 06:48:35;;;;;;;18.05;12.15;;;4.60;94.90;;;;;;5035159;28;20030;-65
2020/12/19 06:51:04;;;;;;;16.83;12.65;;;4.60;94.90;;;;;;5016431;28;20035;-65
2020/12/19 06:53:31;;;;;;;18.27;12.05;;;4.60;94.90;;;;;;5016248;28;20022;-65
2020/12/19 06:55:58;;;;;;;15.75;11.80;;;4.60;94.90;;;;;;5016598;28;20386;-65
2020/12/19 06:58:35;;;;;;;17.13;13.45;;;4.50;94.80;;;;;;5016480;28;20425;-65
2020/12/19 07:01:20;;;;;;;19.42;13.40;;;4.50;94.90;;;;;;5034651;28;20036;-66
2020/12/19 07:03:46;;;;;;;19.85;13.45;;;4.50;94.90;;;;;;5034499;28;20497;-66
2020/12/19 07:06:14;;;;;;;16.10;12.27;;;4.50;94.80;;;;;;5033861;28;20021;-66
2020/12/19 07:08:40;;;;;;;18.67;12.68;;;4.50;94.90;;;;;;5034694;28;20076;-65
2020/12/19 07:11:11;;;;;;;17.02;12.63;;;4.50;94.90;;;;;;5034446;28;20030;-66
2020/12/19 07:13:57;;;;;;;20.20;12.18;;;4.40;94.90;;;;;;5034031;28;20069;-66
2020/12/19 07:16:51;;;;;;;16.05;12.05;;;4.40;94.90;;;;;;5034519;28;20093;-65
2020/12/19 07:19:24;;;;;;;15.60;11.75;;;4.50;94.90;;;;;;5033924;28;20017;-65
2020/12/19 07:21:51;;;;;;;15.70;12.60;;;4.50;94.90;;;;;;5034448;28;20029;-65
2020/12/19 07:24:16;;;;;;;16.02;12.50;;;4.40;94.80;;;;;;5016806;28;20483;-66
2020/12/19 07:26:42;;;;;;;17.15;12.45;;;4.40;94.80;;;;;;5033756;28;20048;-66
2020/12/19 07:29:16;;;;;;;16.63;12.60;;;4.50;94.80;;;;;;5034201;28;20026;-66
2020/12/19 07:31:51;;;;;;;16.23;12.10;;;4.40;94.80;;;;;;5034240;28;20378;-65
2020/12/19 07:34:17;;;;;;;17.35;13.25;;;4.40;94.80;;;;;;5033553;28;20029;-65
2020/12/19 07:36:47;;;;;;;19.98;13.88;;;4.40;94.80;;;;;;5034139;28;20095;-66
2020/12/19 07:39:15;;;;;;;16.60;13.45;;;4.50;94.90;;;;;;5033787;28;20029;-67
2020/12/19 07:41:43;;;;;;;18.55;12.63;;;4.50;94.90;;;;;;5033302;28;20375;-66
2020/12/19 07:44:13;;;;;;;18.77;12.45;;;4.50;94.80;;;;;;5033784;28;20097;-66
2020/12/19 07:46:52;;;;;;;15.82;11.90;;;4.50;94.80;;;;;;5033958;28;20030;-66
2020/12/19 07:49:26;;;;;;;18.73;13.27;;;4.50;94.80;;;;;;5033963;28;20429;-65
2020/12/19 07:52:03;;;;;;;15.27;12.05;;;4.50;94.80;;;;;;5033543;28;20502;-65
2020/12/19 07:54:28;;;;;;;16.52;12.65;;;4.50;94.80;;;;;;5033002;28;20026;-66
2020/12/19 07:56:54;;;;;;;17.67;13.18;;;4.50;94.80;;;;;;5033624;28;20025;-66
2020/12/19 07:59:20;;;;;;;17.50;12.85;;;4.50;94.80;;;;;;5033689;28;20100;-65
2020/12/19 08:01:45;;;;;;;17.85;12.45;;;4.50;94.80;;;;;;5033089;28;20102;-66
2020/12/19 08:04:12;;;;;;;18.40;13.50;;;4.50;94.80;;;;;;5033435;28;20520;-67
2020/12/19 08:06:47;;;;;;;20.60;13.82;;;4.50;94.80;;;;;;5033253;28;20029;-66
2020/12/19 08:09:20;;;;;;;17.13;12.35;;;4.60;94.80;;;;;;5032594;28;20033;-66
2020/12/19 08:11:47;;;;;;;20.45;13.60;;;4.60;94.80;;;;;;5015664;28;20489;-67
2020/12/19 08:14:20;;;;;;;17.80;13.18;;;4.60;94.80;;;;;;5033353;28;20021;-66
2020/12/19 08:16:46;;;;;;;16.17;12.60;;;4.60;94.70;;;;;;5032914;28;20029;-67
2020/12/19 08:19:17;;;;;;;18.25;14.10;;;4.60;94.80;;;;;;5033155;28;20033;-67
2020/12/19 08:21:45;;;;;;;18.90;13.60;;;4.70;94.80;;;;;;5033636;28;20026;-70
2020/12/19 08:24:11;;;;;;;18.27;14.32;;;4.70;94.80;;;;;;5032411;28;20557;-67
2020/12/19 08:26:36;;;;;;;18.15;14.30;;;4.70;94.80;;;;;;5033477;28;20037;-66
2020/12/19 08:29:04;;;;;;;20.90;13.88;;;4.70;94.80;;;;;;5032175;28;20076;-67
2020/12/19 08:31:32;;;;;;;24.23;14.32;;;4.80;94.90;;;;;;5032280;28;20017;-66
2020/12/19 08:33:58;;;;;;;22.67;16.80;;;4.90;95.20;;;;;;5025045;28;20022;-66
2020/12/19 08:36:24;;;;;;;20.58;15.60;;;4.90;95.00;;;;;;4999176;28;20103;-66
2020/12/19 08:38:49;;;;;;;20.67;16.30;;;5.00;95.00;;;;;;5032920;28;20048;-66
2020/12/19 08:41:19;;;;;;;19.33;15.38;;;5.10;95.10;;;;;;5032462;28;20029;-66
2020/12/19 08:43:45;;;;;;;15.80;13.65;;;5.20;95.10;;;;;;5014541;28;20013;-67
2020/12/19 08:46:14;;;;;;;19.63;14.93;;;5.30;95.00;;;;;;5032857;28;20354;-67
2020/12/19 08:48:41;;;;;;;23.10;15.43;;;5.40;95.00;;;;;;5028106;28;20025;-64
2020/12/19 08:51:19;;;;;;;19.25;15.48;;;5.50;95.00;;;;;;4994488;28;20026;-64
2020/12/19 08:53:45;;;;;;;19.52;14.93;;;5.50;95.00;;;;;;5012968;28;20017;-64
2020/12/19 08:56:13;;;;;;;19.60;15.32;;;5.60;95.00;;;;;;5012964;28;20528;-67
2020/12/19 08:58:39;;;;;;;19.95;15.32;;;5.70;95.00;;;;;;5012426;28;20026;-65
2020/12/19 09:01:15;;;;;;;17.20;14.88;;;5.80;95.10;;;;;;5012755;28;20383;-66
2020/12/19 09:03:42;;;;;;;20.35;15.43;;;6.00;95.10;;;;;;5013097;28;20370;-66
2020/12/19 09:06:10;;;;;;;21.25;14.80;;;6.10;95.10;;;;;;5012471;28;20593;-66
2020/12/19 09:08:41;;;;;;;19.35;15.18;;;6.20;95.10;;;;;;5013244;28;20022;-70
2020/12/19 09:11:28;;;;;;;20.08;15.05;;;6.40;95.20;;;;;;5012651;28;20022;-66
2020/12/19 09:14:08;;;;;;;23.60;15.40;;;6.50;95.20;;;;;;5012670;28;20586;-70
2020/12/19 09:16:34;;;;;;;20.90;15.32;;;6.60;95.20;;;;;;5023789;28;20083;-65
2020/12/19 09:19:00;;;;;;;17.52;13.95;;;6.70;95.10;;;;;;5036207;28;20100;-76
2020/12/19 09:21:25;;;;;;;16.98;13.13;;;6.80;95.20;;;;;;5041882;28;20047;-75
2020/12/19 09:23:51;;;;;;;17.08;13.40;;;6.90;95.20;;;;;;5042256;28;20032;-66
2020/12/19 09:26:17;;;;;;;18.98;14.07;;;7.00;95.30;;;;;;5028087;28;20024;-66
2020/12/19 09:28:42;;;;;;;17.70;13.18;;;7.10;95.30;;;;;;5041254;28;20021;-71
2020/12/19 09:31:08;;;;;;;16.90;13.25;;;7.20;95.30;;;;;;5042413;28;20025;-66
2020/12/19 09:33:34;;;;;;;16.65;12.57;;;7.30;95.30;;;;;;5040996;28;20449;-73
2020/12/19 09:35:59;;;;;;;16.83;13.68;;;7.30;95.30;;;;;;5046386;28;20072;-74
2020/12/19 09:38:25;;;;;;;17.92;13.07;;;7.40;95.30;;;;;;5028172;28;20061;-66
2020/12/19 09:40:50;;;;;;;16.15;13.23;;;7.50;95.40;;;;;;5048955;28;20029;-71
2020/12/19 09:43:16;;;;;;;17.35;12.38;;;7.60;95.40;;;;;;5052733;28;20120;-67
2020/12/19 09:45:42;;;;;;;18.52;13.32;;;7.70;95.50;;;;;;5036208;28;20025;-66
2020/12/19 09:48:07;;;;;;;18.85;13.23;;;7.70;95.50;;;;;;5035266;28;20036;-66
2020/12/19 09:50:33;;;;;;;16.45;13.45;;;7.80;95.60;;;;;;5036155;28;20389;-66
2020/12/19 09:52:59;;;;;;;16.13;13.20;;;7.90;95.60;;;;;;5023384;28;20468;-67
2020/12/19 09:55:27;;;;;;;15.43;13.07;;;8.00;95.60;;;;;;5037258;28;20482;-67
2020/12/19 09:57:52;;;;;;;18.42;13.07;;;8.10;95.60;;;;;;5048421;28;20495;-67
2020/12/19 10:00:18;;;;;;;17.27;13.88;;;8.20;95.70;;;;;;5036230;28;20029;-69
2020/12/19 10:02:46;;;;;;;14.52;12.85;;;8.20;95.70;;;;;;5035397;28;20013;-67
2020/12/19 10:05:12;;;;;;;14.48;12.07;;;8.30;95.70;;;;;;5037334;28;20030;-69
2020/12/19 10:07:38;;;;;;;18.35;13.45;;;8.40;95.70;;;;;;5031295;28;20037;-69
2020/12/19 10:10:05;;;;;;;15.55;12.40;;;8.50;95.70;;;;;;5018942;28;20029;-67
2020/12/19 10:12:30;;;;;;;15.48;12.38;;;8.60;95.70;;;;;;5035726;28;20164;-69
2020/12/19 10:14:56;;;;;;;15.75;13.57;;;8.60;95.70;;;;;;5017053;28;20116;-68
2020/12/19 10:17:21;;;;;;;19.45;14.02;;;8.70;95.70;;;;;;5018185;28;20103;-68
2020/12/19 10:19:47;;;;;;;15.52;12.90;;;8.80;95.70;;;;;;5035668;28;20027;-67
2020/12/19 10:22:13;;;;;;;13.27;11.73;;;8.90;95.70;;;;;;5034629;28;20028;-68
2020/12/19 10:24:39;;;;;;;14.98;11.73;;;9.00;95.60;;;;;;5017777;28;20033;-69
2020/12/19 10:27:05;;;;;;;14.25;12.60;;;9.10;95.60;;;;;;5035297;28;20024;-68
2020/12/19 10:29:31;;;;;;;14.98;13.55;;;9.30;95.50;;;;;;5033895;28;20449;-68
2020/12/19 10:31:56;;;;;;;13.32;11.52;;;9.40;95.40;;;;;;5017416;28;20437;-69
2020/12/19 10:34:22;;;;;;;16.33;12.25;;;9.60;95.30;;;;;;5035291;28;20105;-68
2020/12/19 10:36:52;;;;;;;15.32;11.50;;;9.70;95.20;;;;;;5034587;28;20103;-67
2020/12/19 10:39:18;;;;;;;14.30;11.63;;;9.80;95.00;;;;;;5017583;28;20026;-68
2020/12/19 10:41:47;;;;;;;15.07;12.15;;;10.00;94.90;;;;;;5034809;28;20545;-67
2020/12/19 10:44:13;;;;;;;15.93;12.07;;;10.10;94.70;;;;;;5034303;28;20535;-67
2020/12/19 10:46:38;;;;;;;14.43;11.38;;;10.20;94.60;;;;;;5014973;28;20021;-68
2020/12/19 10:49:04;;;;;;;12.98;10.73;;;10.30;94.40;;;;;;5034771;28;20029;-68
2020/12/19 10:51:30;;;;;;;14.13;11.93;;;10.40;94.30;;;;;;5034491;28;20247;-68
2020/12/19 10:53:56;;;;;;;14.18;11.70;;;10.50;94.20;;;;;;5034596;28;20029;-67
2020/12/19 10:56:22;;;;;;;15.55;10.52;;;10.60;94.00;;;;;;5034974;28;20033;-67
2020/12/19 10:58:48;;;;;;;12.63;10.88;;;10.70;93.90;;;;;;5034245;28;20112;-68
2020/12/19 11:01:14;;;;;;;12.73;9.75;;;10.80;93.80;;;;;;5017971;28;20044;-68
2020/12/19 11:03:41;;;;;;;13.13;11.13;;;10.80;93.70;;;;;;5046840;28;20398;-68
2020/12/19 11:06:07;;;;;;;15.35;10.68;;;10.90;93.60;;;;;;5031026;28;20029;-68
2020/12/19 11:08:33;;;;;;;14.18;10.80;;;11.00;93.40;;;;;;5035736;28;20024;-69
2020/12/19 11:10:59;;;;;;;11.30;9.95;;;11.00;93.30;;;;;;5051897;28;20074;-70
2020/12/19 11:13:24;;;;;;;10.52;9.38;;;11.10;93.10;;;;;;5040286;28;20014;-70
2020/12/19 11:15:50;;;;;;;11.52;10.10;;;11.10;93.10;;;;;;5003297;28;20535;-68
2020/12/19 11:18:16;;;;;;;14.15;10.55;;;11.20;93.00;;;;;;5033686;28;20076;-68
2020/12/19 11:20:41;;;;;;;12.00;10.45;;;11.30;92.90;;;;;;5033959;28;20474;-69
2020/12/19 11:23:07;;;;;;;10.82;9.73;;;11.30;92.60;;;;;;5016064;28;20033;-69
2020/12/19 11:25:32;;;;;;;14.80;9.90;;;11.40;92.60;;;;;;5033626;28;20108;-71
2020/12/19 11:27:58;;;;;;;11.75;10.23;;;11.40;92.50;;;;;;5033585;28;20017;-69
2020/12/19 11:30:23;;;;;;;12.90;10.40;;;11.50;92.50;;;;;;5023487;28;20072;-71
2020/12/19 11:32:49;;;;;;;12.40;10.07;;;11.50;92.40;;;;;;5034239;28;20079;-69
2020/12/19 11:35:15;;;;;;;13.02;9.18;;;11.60;92.40;;;;;;5033865;28;20033;-70
2020/12/19 11:37:40;;;;;;;11.18;9.50;;;11.60;92.30;;;;;;5033292;28;20037;-70
2020/12/19 11:40:06;;;;;;;11.73;9.75;;;11.70;92.30;;;;;;5014204;28;20486;-69
2020/12/19 11:42:31;;;;;;;11.98;9.20;;;11.80;92.20;;;;;;5033686;28;21616;-69
2020/12/19 11:44:57;;;;;;;12.40;10.30;;;11.90;92.10;;;;;;5033724;28;20029;-69
2020/12/19 11:47:22;;;;;;;11.13;9.50;;;11.90;92.00;;;;;;5025529;28;20029;-70
2020/12/19 11:49:48;;;;;;;12.82;8.68;;;12.00;91.90;;;;;;5015329;28;20017;-71
2020/12/19 11:52:13;;;;;;;10.73;9.18;;;12.00;91.80;;;;;;5033205;28;20036;-75
2020/12/19 11:54:39;;;;;;;12.38;9.38;;;12.00;91.60;;;;;;5032081;28;20029;-72
2020/12/19 11:57:06;;;;;;;11.55;9.02;;;12.10;91.50;;;;;;5032327;28;20044;-70
2020/12/19 11:59:32;;;;;;;9.57;8.40;;;12.10;91.50;;;;;;5033058;28;20025;-71
2020/12/19 12:02:03;;;;;;;9.30;7.97;;;12.10;91.40;;;;;;5032455;28;20033;-71
2020/12/19 12:04:29;;;;;;;8.63;7.43;;;12.20;91.30;;;;;;5015671;28;20026;-71
2020/12/19 12:06:55;;;;;;;8.80;7.72;;;12.20;91.10;;;;;;5014678;28;20033;-73
2020/12/19 12:09:21;;;;;;;12.38;7.57;;;12.20;91.20;;;;;;5032615;28;20036;-73
2020/12/19 12:11:46;;;;;;;8.52;7.40;;;12.30;91.10;;;;;;5015181;28;20520;-73
2020/12/19 12:14:15;;;;;;;10.50;7.18;;;12.40;90.80;;;;;;5032015;28;20049;-77
2020/12/19 12:16:41;;;;;;;9.00;7.10;;;12.50;90.50;;;;;;5030285;28;20037;-76
2020/12/19 12:19:06;;;;;;;8.27;7.45;;;12.60;90.40;;;;;;5015130;28;20370;-75
2020/12/19 12:21:39;;;;;;;7.65;6.85;;;12.70;90.30;;;;;;5031433;28;20026;-75
2020/12/19 12:24:06;;;;;;;8.43;7.07;;;12.70;90.10;;;;;;4995417;28;20026;-77
2020/12/19 12:26:32;;;;;;;7.75;7.03;;;12.80;90.00;;;;;;4995684;28;20038;-71
2020/12/19 12:28:58;;;;;;;9.98;7.03;;;12.90;89.90;;;;;;4994290;28;20021;-73
2020/12/19 12:31:26;;;;;;;8.60;6.97;;;12.90;89.30;;;;;;5015074;28;20024;-72
2020/12/19 12:33:52;;;;;;;9.27;7.47;;;12.90;89.20;;;;;;5036541;28;20030;-72
2020/12/19 12:36:19;;;;;;;9.18;6.88;;;12.90;89.20;;;;;;5031594;28;20080;-74